sensor_id;sensor_type;location;lat;lon;timestamp;P1;durP1;ratioP1;P2;durP2;ratioP2
30605;SDS011;17371;51.328;3.860;2023-04-03T00:00:00;12.13;;;6.70;;
30605;SDS011;17371;51.328;3.860;2023-04-03T00:02:26;11.03;;;6.53;;
30605;SDS011;17371;51.328;3.860;2023-04-03T00:04:51;11.00;;;6.60;;
30605;SDS011;17371;51.328;3.860;2023-04-03T00:07:16;11.05;;;6.25;;
30605;SDS011;17371;51.328;3.860;2023-04-03T00:09:42;11.50;;;6.00;;
30605;SDS011;17371;51.328;3.860;2023-04-03T00:12:07;12.20;;;7.10;;
30605;SDS011;17371;51.328;3.860;2023-04-03T00:14:34;10.17;;;6.37;;
30605;SDS011;17371;51.328;3.860;2023-04-03T00:16:59;14.57;;;6.22;;
30605;SDS011;17371;51.328;3.860;2023-04-03T00:19:25;11.53;;;6.57;;
30605;SDS011;17371;51.328;3.860;2023-04-03T00:21:50;10.97;;;6.37;;
30605;SDS011;17371;51.328;3.860;2023-04-03T00:24:15;11.27;;;5.83;;
30605;SDS011;17371;51.328;3.860;2023-04-03T00:26:41;10.80;;;6.87;;
30605;SDS011;17371;51.328;3.860;2023-04-03T00:29:06;9.57;;;6.35;;
30605;SDS011;17371;51.328;3.860;2023-04-03T00:31:33;11.73;;;7.13;;
30605;SDS011;17371;51.328;3.860;2023-04-03T00:33:58;11.20;;;6.95;;
30605;SDS011;17371;51.328;3.860;2023-04-03T00:36:24;12.77;;;6.80;;
30605;SDS011;17371;51.328;3.860;2023-04-03T00:38:49;12.70;;;6.83;;
30605;SDS011;17371;51.328;3.860;2023-04-03T00:41:15;11.87;;;7.10;;
30605;SDS011;17371;51.328;3.860;2023-04-03T00:43:40;11.10;;;7.20;;
30605;SDS011;17371;51.328;3.860;2023-04-03T00:46:05;11.03;;;6.73;;
30605;SDS011;17371;51.328;3.860;2023-04-03T00:48:33;9.60;;;6.80;;
30605;SDS011;17371;51.328;3.860;2023-04-03T00:51:00;11.63;;;6.63;;
30605;SDS011;17371;51.328;3.860;2023-04-03T00:53:27;13.48;;;7.20;;
30605;SDS011;17371;51.328;3.860;2023-04-03T00:55:55;14.05;;;7.40;;
30605;SDS011;17371;51.328;3.860;2023-04-03T00:58:21;12.10;;;6.85;;
30605;SDS011;17371;51.328;3.860;2023-04-03T01:00:53;12.10;;;6.87;;
30605;SDS011;17371;51.328;3.860;2023-04-03T01:03:20;11.93;;;7.05;;
30605;SDS011;17371;51.328;3.860;2023-04-03T01:05:47;14.73;;;7.17;;
30605;SDS011;17371;51.328;3.860;2023-04-03T01:08:12;12.27;;;6.78;;
30605;SDS011;17371;51.328;3.860;2023-04-03T01:10:38;9.50;;;6.70;;
30605;SDS011;17371;51.328;3.860;2023-04-03T01:13:14;13.48;;;6.80;;
30605;SDS011;17371;51.328;3.860;2023-04-03T01:15:43;12.27;;;7.43;;
30605;SDS011;17371;51.328;3.860;2023-04-03T01:18:08;14.88;;;6.78;;
30605;SDS011;17371;51.328;3.860;2023-04-03T01:20:49;10.98;;;6.80;;
30605;SDS011;17371;51.328;3.860;2023-04-03T01:23:26;14.25;;;6.90;;
30605;SDS011;17371;51.328;3.860;2023-04-03T01:25:56;12.48;;;7.13;;
30605;SDS011;17371;51.328;3.860;2023-04-03T01:28:22;18.50;;;7.45;;
30605;SDS011;17371;51.328;3.860;2023-04-03T01:30:50;13.13;;;6.90;;
30605;SDS011;17371;51.328;3.860;2023-04-03T01:33:20;12.27;;;7.00;;
30605;SDS011;17371;51.328;3.860;2023-04-03T01:35:45;9.93;;;6.57;;
30605;SDS011;17371;51.328;3.860;2023-04-03T01:38:11;15.97;;;7.10;;
30605;SDS011;17371;51.328;3.860;2023-04-03T01:40:36;10.07;;;6.27;;
30605;SDS011;17371;51.328;3.860;2023-04-03T01:43:02;12.95;;;7.90;;
30605;SDS011;17371;51.328;3.860;2023-04-03T01:45:28;12.30;;;6.95;;
30605;SDS011;17371;51.328;3.860;2023-04-03T01:47:53;9.90;;;6.87;;
30605;SDS011;17371;51.328;3.860;2023-04-03T01:50:20;13.30;;;7.13;;
30605;SDS011;17371;51.328;3.860;2023-04-03T01:52:46;13.75;;;7.32;;
30605;SDS011;17371;51.328;3.860;2023-04-03T01:55:11;14.13;;;7.30;;
30605;SDS011;17371;51.328;3.860;2023-04-03T01:57:36;11.03;;;6.17;;
30605;SDS011;17371;51.328;3.860;2023-04-03T02:00:02;14.13;;;8.23;;
30605;SDS011;17371;51.328;3.860;2023-04-03T02:02:28;12.25;;;6.80;;
30605;SDS011;17371;51.328;3.860;2023-04-03T02:04:53;14.00;;;6.50;;
30605;SDS011;17371;51.328;3.860;2023-04-03T02:07:20;13.47;;;6.50;;
30605;SDS011;17371;51.328;3.860;2023-04-03T02:09:45;14.20;;;7.65;;
30605;SDS011;17371;51.328;3.860;2023-04-03T02:12:10;11.87;;;6.80;;
30605;SDS011;17371;51.328;3.860;2023-04-03T02:14:36;11.57;;;6.53;;
30605;SDS011;17371;51.328;3.860;2023-04-03T02:17:01;12.30;;;5.53;;
30605;SDS011;17371;51.328;3.860;2023-04-03T02:19:27;11.20;;;5.82;;
30605;SDS011;17371;51.328;3.860;2023-04-03T02:21:52;14.67;;;6.33;;
30605;SDS011;17371;51.328;3.860;2023-04-03T02:24:19;10.07;;;5.70;;
30605;SDS011;17371;51.328;3.860;2023-04-03T02:26:45;15.10;;;6.93;;
30605;SDS011;17371;51.328;3.860;2023-04-03T02:29:10;11.73;;;6.80;;
30605;SDS011;17371;51.328;3.860;2023-04-03T02:31:35;12.87;;;5.77;;
30605;SDS011;17371;51.328;3.860;2023-04-03T02:34:01;10.27;;;6.37;;
30605;SDS011;17371;51.328;3.860;2023-04-03T02:36:26;11.63;;;6.57;;
30605;SDS011;17371;51.328;3.860;2023-04-03T02:38:52;11.80;;;6.18;;
30605;SDS011;17371;51.328;3.860;2023-04-03T02:41:18;11.17;;;6.33;;
30605;SDS011;17371;51.328;3.860;2023-04-03T02:43:44;9.10;;;6.38;;
30605;SDS011;17371;51.328;3.860;2023-04-03T02:46:09;12.87;;;6.37;;
30605;SDS011;17371;51.328;3.860;2023-04-03T02:48:34;13.33;;;5.90;;
30605;SDS011;17371;51.328;3.860;2023-04-03T02:51:00;9.85;;;6.25;;
30605;SDS011;17371;51.328;3.860;2023-04-03T02:53:26;10.30;;;5.63;;
30605;SDS011;17371;51.328;3.860;2023-04-03T02:55:51;12.23;;;6.23;;
30605;SDS011;17371;51.328;3.860;2023-04-03T02:58:18;15.97;;;6.87;;
30605;SDS011;17371;51.328;3.860;2023-04-03T03:00:43;11.32;;;6.05;;
30605;SDS011;17371;51.328;3.860;2023-04-03T03:03:09;10.37;;;6.03;;
30605;SDS011;17371;51.328;3.860;2023-04-03T03:05:34;12.00;;;6.37;;
30605;SDS011;17371;51.328;3.860;2023-04-03T03:07:59;10.77;;;6.10;;
30605;SDS011;17371;51.328;3.860;2023-04-03T03:10:25;11.48;;;6.25;;
30605;SDS011;17371;51.328;3.860;2023-04-03T03:12:50;10.83;;;5.43;;
30605;SDS011;17371;51.328;3.860;2023-04-03T03:15:17;23.90;;;6.47;;
30605;SDS011;17371;51.328;3.860;2023-04-03T03:17:43;10.32;;;6.57;;
30605;SDS011;17371;51.328;3.860;2023-04-03T03:20:08;10.27;;;6.43;;
30605;SDS011;17371;51.328;3.860;2023-04-03T03:22:35;10.18;;;6.40;;
30605;SDS011;17371;51.328;3.860;2023-04-03T03:25:00;13.13;;;6.28;;
30605;SDS011;17371;51.328;3.860;2023-04-03T03:27:26;12.30;;;6.20;;
30605;SDS011;17371;51.328;3.860;2023-04-03T03:29:51;9.20;;;5.83;;
30605;SDS011;17371;51.328;3.860;2023-04-03T03:32:18;14.07;;;6.60;;
30605;SDS011;17371;51.328;3.860;2023-04-03T03:34:43;11.38;;;5.97;;
30605;SDS011;17371;51.328;3.860;2023-04-03T03:37:09;11.50;;;6.40;;
30605;SDS011;17371;51.328;3.860;2023-04-03T03:39:34;13.77;;;6.93;;
30605;SDS011;17371;51.328;3.860;2023-04-03T03:42:00;13.85;;;6.45;;
30605;SDS011;17371;51.328;3.860;2023-04-03T03:44:25;10.55;;;5.97;;
30605;SDS011;17371;51.328;3.860;2023-04-03T03:46:50;11.50;;;6.33;;
30605;SDS011;17371;51.328;3.860;2023-04-03T03:49:17;11.13;;;6.90;;
30605;SDS011;17371;51.328;3.860;2023-04-03T03:51:43;17.27;;;6.55;;
30605;SDS011;17371;51.328;3.860;2023-04-03T03:54:09;12.27;;;5.83;;
30605;SDS011;17371;51.328;3.860;2023-04-03T03:56:34;12.05;;;6.00;;
30605;SDS011;17371;51.328;3.860;2023-04-03T03:59:00;8.40;;;6.43;;
30605;SDS011;17371;51.328;3.860;2023-04-03T04:01:25;10.50;;;6.80;;
30605;SDS011;17371;51.328;3.860;2023-04-03T04:03:51;10.53;;;6.20;;
30605;SDS011;17371;51.328;3.860;2023-04-03T04:06:17;11.63;;;6.22;;
30605;SDS011;17371;51.328;3.860;2023-04-03T04:08:43;11.80;;;6.37;;
30605;SDS011;17371;51.328;3.860;2023-04-03T04:11:08;13.05;;;5.82;;
30605;SDS011;17371;51.328;3.860;2023-04-03T04:13:34;11.77;;;5.50;;
30605;SDS011;17371;51.328;3.860;2023-04-03T04:15:59;11.50;;;6.53;;
30605;SDS011;17371;51.328;3.860;2023-04-03T04:18:25;9.20;;;5.90;;
30605;SDS011;17371;51.328;3.860;2023-04-03T04:20:50;12.43;;;6.50;;
30605;SDS011;17371;51.328;3.860;2023-04-03T04:23:17;10.63;;;6.00;;
30605;SDS011;17371;51.328;3.860;2023-04-03T04:25:44;13.63;;;6.78;;
30605;SDS011;17371;51.328;3.860;2023-04-03T04:28:09;13.95;;;6.15;;
30605;SDS011;17371;51.328;3.860;2023-04-03T04:30:35;15.47;;;7.03;;
30605;SDS011;17371;51.328;3.860;2023-04-03T04:33:00;11.40;;;6.50;;
30605;SDS011;17371;51.328;3.860;2023-04-03T04:35:25;10.87;;;6.67;;
30605;SDS011;17371;51.328;3.860;2023-04-03T04:37:51;11.87;;;6.00;;
30605;SDS011;17371;51.328;3.860;2023-04-03T04:40:17;9.37;;;5.90;;
30605;SDS011;17371;51.328;3.860;2023-04-03T04:42:43;13.73;;;7.10;;
30605;SDS011;17371;51.328;3.860;2023-04-03T04:45:08;11.67;;;6.70;;
30605;SDS011;17371;51.328;3.860;2023-04-03T04:47:34;12.38;;;6.97;;
30605;SDS011;17371;51.328;3.860;2023-04-03T04:50:00;11.17;;;6.53;;
30605;SDS011;17371;51.328;3.860;2023-04-03T04:52:25;11.43;;;6.97;;
30605;SDS011;17371;51.328;3.860;2023-04-03T04:54:50;10.77;;;6.60;;
30605;SDS011;17371;51.328;3.860;2023-04-03T04:57:17;10.23;;;6.47;;
30605;SDS011;17371;51.328;3.860;2023-04-03T04:59:43;13.50;;;6.83;;
30605;SDS011;17371;51.328;3.860;2023-04-03T05:02:08;11.98;;;6.55;;
30605;SDS011;17371;51.328;3.860;2023-04-03T05:04:33;13.07;;;6.40;;
30605;SDS011;17371;51.328;3.860;2023-04-03T05:06:59;17.63;;;6.53;;
30605;SDS011;17371;51.328;3.860;2023-04-03T05:09:24;15.73;;;7.67;;
30605;SDS011;17371;51.328;3.860;2023-04-03T05:11:50;12.80;;;7.20;;
30605;SDS011;17371;51.328;3.860;2023-04-03T05:14:16;12.03;;;7.00;;
30605;SDS011;17371;51.328;3.860;2023-04-03T05:16:42;16.83;;;6.43;;
30605;SDS011;17371;51.328;3.860;2023-04-03T05:19:07;14.30;;;7.20;;
30605;SDS011;17371;51.328;3.860;2023-04-03T05:21:33;12.93;;;6.97;;
30605;SDS011;17371;51.328;3.860;2023-04-03T05:23:58;13.48;;;7.32;;
30605;SDS011;17371;51.328;3.860;2023-04-03T05:26:23;25.83;;;7.60;;
30605;SDS011;17371;51.328;3.860;2023-04-03T05:28:49;11.77;;;7.20;;
30605;SDS011;17371;51.328;3.860;2023-04-03T05:31:16;13.63;;;6.63;;
30605;SDS011;17371;51.328;3.860;2023-04-03T05:33:41;12.73;;;7.07;;
30605;SDS011;17371;51.328;3.860;2023-04-03T05:36:07;13.50;;;8.00;;
30605;SDS011;17371;51.328;3.860;2023-04-03T05:38:33;10.90;;;7.03;;
30605;SDS011;17371;51.328;3.860;2023-04-03T05:40:58;13.45;;;7.80;;
30605;SDS011;17371;51.328;3.860;2023-04-03T05:43:24;11.10;;;7.67;;
30605;SDS011;17371;51.328;3.860;2023-04-03T05:45:50;16.13;;;7.60;;
30605;SDS011;17371;51.328;3.860;2023-04-03T05:48:17;16.98;;;8.15;;
30605;SDS011;17371;51.328;3.860;2023-04-03T05:50:42;13.85;;;8.27;;
30605;SDS011;17371;51.328;3.860;2023-04-03T05:53:09;14.57;;;7.43;;
30605;SDS011;17371;51.328;3.860;2023-04-03T05:55:38;15.10;;;8.63;;
30605;SDS011;17371;51.328;3.860;2023-04-03T05:58:03;15.13;;;7.63;;
30605;SDS011;17371;51.328;3.860;2023-04-03T06:00:29;12.33;;;7.30;;
30605;SDS011;17371;51.328;3.860;2023-04-03T06:02:54;13.75;;;8.90;;
30605;SDS011;17371;51.328;3.860;2023-04-03T06:05:21;13.13;;;7.30;;
30605;SDS011;17371;51.328;3.860;2023-04-03T06:07:46;14.97;;;8.33;;
30605;SDS011;17371;51.328;3.860;2023-04-03T06:10:12;15.98;;;8.80;;
30605;SDS011;17371;51.328;3.860;2023-04-03T06:12:37;13.80;;;8.17;;
30605;SDS011;17371;51.328;3.860;2023-04-03T06:15:03;16.97;;;9.17;;
30605;SDS011;17371;51.328;3.860;2023-04-03T06:17:29;16.98;;;9.85;;
30605;SDS011;17371;51.328;3.860;2023-04-03T06:19:54;17.30;;;9.33;;
30605;SDS011;17371;51.328;3.860;2023-04-03T06:22:21;15.52;;;9.13;;
30605;SDS011;17371;51.328;3.860;2023-04-03T06:24:47;13.47;;;8.70;;
30605;SDS011;17371;51.328;3.860;2023-04-03T06:27:12;12.68;;;6.68;;
30605;SDS011;17371;51.328;3.860;2023-04-03T06:29:37;14.20;;;7.77;;
30605;SDS011;17371;51.328;3.860;2023-04-03T06:32:03;17.83;;;7.60;;
30605;SDS011;17371;51.328;3.860;2023-04-03T06:34:28;13.83;;;7.23;;
30605;SDS011;17371;51.328;3.860;2023-04-03T06:36:54;13.00;;;7.60;;
30605;SDS011;17371;51.328;3.860;2023-04-03T06:39:21;13.20;;;7.83;;
30605;SDS011;17371;51.328;3.860;2023-04-03T06:41:46;15.45;;;7.78;;
30605;SDS011;17371;51.328;3.860;2023-04-03T06:44:12;11.87;;;7.93;;
30605;SDS011;17371;51.328;3.860;2023-04-03T06:46:37;14.30;;;7.10;;
30605;SDS011;17371;51.328;3.860;2023-04-03T06:49:03;11.60;;;7.70;;
30605;SDS011;17371;51.328;3.860;2023-04-03T06:51:29;11.90;;;7.17;;
30605;SDS011;17371;51.328;3.860;2023-04-03T06:53:56;8.95;;;6.18;;
30605;SDS011;17371;51.328;3.860;2023-04-03T06:56:24;12.38;;;7.68;;
30605;SDS011;17371;51.328;3.860;2023-04-03T06:58:49;10.37;;;6.67;;
30605;SDS011;17371;51.328;3.860;2023-04-03T07:01:15;14.48;;;7.20;;
30605;SDS011;17371;51.328;3.860;2023-04-03T07:03:42;10.45;;;4.82;;
30605;SDS011;17371;51.328;3.860;2023-04-03T07:06:09;14.77;;;7.13;;
30605;SDS011;17371;51.328;3.860;2023-04-03T07:08:36;8.77;;;4.85;;
30605;SDS011;17371;51.328;3.860;2023-04-03T07:11:01;12.57;;;6.13;;
30605;SDS011;17371;51.328;3.860;2023-04-03T07:13:28;13.50;;;6.80;;
30605;SDS011;17371;51.328;3.860;2023-04-03T07:15:54;14.38;;;7.63;;
30605;SDS011;17371;51.328;3.860;2023-04-03T07:18:19;11.70;;;7.30;;
30605;SDS011;17371;51.328;3.860;2023-04-03T07:20:45;11.10;;;6.30;;
30605;SDS011;17371;51.328;3.860;2023-04-03T07:23:10;11.53;;;6.93;;
30605;SDS011;17371;51.328;3.860;2023-04-03T07:25:36;7.27;;;4.30;;
30605;SDS011;17371;51.328;3.860;2023-04-03T07:28:02;8.93;;;6.30;;
30605;SDS011;17371;51.328;3.860;2023-04-03T07:30:28;12.60;;;5.90;;
30605;SDS011;17371;51.328;3.860;2023-04-03T07:32:54;12.38;;;6.40;;
30605;SDS011;17371;51.328;3.860;2023-04-03T07:35:19;12.93;;;7.23;;
30605;SDS011;17371;51.328;3.860;2023-04-03T07:37:45;13.40;;;6.80;;
30605;SDS011;17371;51.328;3.860;2023-04-03T07:40:10;16.15;;;7.40;;
30605;SDS011;17371;51.328;3.860;2023-04-03T07:42:36;15.85;;;7.78;;
30605;SDS011;17371;51.328;3.860;2023-04-03T07:45:01;12.50;;;6.30;;
30605;SDS011;17371;51.328;3.860;2023-04-03T07:47:28;13.37;;;7.43;;
30605;SDS011;17371;51.328;3.860;2023-04-03T07:49:54;13.38;;;8.40;;
30605;SDS011;17371;51.328;3.860;2023-04-03T07:52:19;15.00;;;7.90;;
30605;SDS011;17371;51.328;3.860;2023-04-03T07:54:44;14.97;;;9.37;;
30605;SDS011;17371;51.328;3.860;2023-04-03T07:57:10;13.73;;;7.80;;
30605;SDS011;17371;51.328;3.860;2023-04-03T07:59:35;15.07;;;7.53;;
30605;SDS011;17371;51.328;3.860;2023-04-03T08:02:01;11.53;;;7.93;;
30605;SDS011;17371;51.328;3.860;2023-04-03T08:04:27;13.50;;;8.10;;
30605;SDS011;17371;51.328;3.860;2023-04-03T08:06:53;9.27;;;5.88;;
30605;SDS011;17371;51.328;3.860;2023-04-03T08:09:18;13.13;;;7.57;;
30605;SDS011;17371;51.328;3.860;2023-04-03T08:11:44;14.60;;;8.60;;
30605;SDS011;17371;51.328;3.860;2023-04-03T08:14:09;14.10;;;7.70;;
30605;SDS011;17371;51.328;3.860;2023-04-03T08:16:35;14.97;;;7.90;;
30605;SDS011;17371;51.328;3.860;2023-04-03T08:19:00;14.10;;;7.27;;
30605;SDS011;17371;51.328;3.860;2023-04-03T08:21:27;16.60;;;6.77;;
30605;SDS011;17371;51.328;3.860;2023-04-03T08:23:52;12.15;;;7.50;;
30605;SDS011;17371;51.328;3.860;2023-04-03T08:26:18;13.90;;;6.53;;
30605;SDS011;17371;51.328;3.860;2023-04-03T08:28:44;12.07;;;6.53;;
30605;SDS011;17371;51.328;3.860;2023-04-03T08:31:10;9.43;;;6.00;;
30605;SDS011;17371;51.328;3.860;2023-04-03T08:33:38;10.50;;;6.47;;
30605;SDS011;17371;51.328;3.860;2023-04-03T08:36:04;8.88;;;5.35;;
30605;SDS011;17371;51.328;3.860;2023-04-03T08:38:32;18.47;;;5.50;;
30605;SDS011;17371;51.328;3.860;2023-04-03T08:41:05;6.88;;;3.65;;
30605;SDS011;17371;51.328;3.860;2023-04-03T08:43:36;6.45;;;3.67;;
30605;SDS011;17371;51.328;3.860;2023-04-03T08:46:05;7.97;;;3.45;;
30605;SDS011;17371;51.328;3.860;2023-04-03T08:48:32;11.07;;;4.90;;
30605;SDS011;17371;51.328;3.860;2023-04-03T08:50:59;9.83;;;4.60;;
30605;SDS011;17371;51.328;3.860;2023-04-03T08:53:28;6.03;;;3.50;;
30605;SDS011;17371;51.328;3.860;2023-04-03T08:55:55;8.77;;;4.00;;
30605;SDS011;17371;51.328;3.860;2023-04-03T08:58:21;4.10;;;1.85;;
30605;SDS011;17371;51.328;3.860;2023-04-03T09:00:49;9.00;;;3.70;;
30605;SDS011;17371;51.328;3.860;2023-04-03T09:03:16;6.97;;;2.63;;
30605;SDS011;17371;51.328;3.860;2023-04-03T09:05:45;6.85;;;2.70;;
30605;SDS011;17371;51.328;3.860;2023-04-03T09:08:14;3.95;;;2.10;;
30605;SDS011;17371;51.328;3.860;2023-04-03T09:10:46;7.47;;;3.00;;
30605;SDS011;17371;51.328;3.860;2023-04-03T09:13:17;7.13;;;3.00;;
30605;SDS011;17371;51.328;3.860;2023-04-03T09:15:49;3.75;;;1.90;;
30605;SDS011;17371;51.328;3.860;2023-04-03T09:18:15;5.60;;;2.10;;
30605;SDS011;17371;51.328;3.860;2023-04-03T09:20:49;3.70;;;2.47;;
30605;SDS011;17371;51.328;3.860;2023-04-03T09:23:22;6.85;;;2.70;;
30605;SDS011;17371;51.328;3.860;2023-04-03T09:25:52;4.80;;;2.55;;
30605;SDS011;17371;51.328;3.860;2023-04-03T09:28:22;5.00;;;2.30;;
30605;SDS011;17371;51.328;3.860;2023-04-03T09:30:48;4.43;;;2.10;;
30605;SDS011;17371;51.328;3.860;2023-04-03T09:33:13;5.30;;;2.00;;
30605;SDS011;17371;51.328;3.860;2023-04-03T09:35:39;3.25;;;2.03;;
30605;SDS011;17371;51.328;3.860;2023-04-03T09:38:14;4.63;;;2.13;;
30605;SDS011;17371;51.328;3.860;2023-04-03T09:40:41;2.95;;;1.90;;
30605;SDS011;17371;51.328;3.860;2023-04-03T09:43:21;3.33;;;2.13;;
30605;SDS011;17371;51.328;3.860;2023-04-03T09:45:50;5.07;;;2.50;;
30605;SDS011;17371;51.328;3.860;2023-04-03T09:48:17;6.18;;;2.10;;
30605;SDS011;17371;51.328;3.860;2023-04-03T09:50:53;10.50;;;3.43;;
30605;SDS011;17371;51.328;3.860;2023-04-03T09:53:28;8.60;;;3.08;;
30605;SDS011;17371;51.328;3.860;2023-04-03T09:55:55;5.13;;;2.75;;
30605;SDS011;17371;51.328;3.860;2023-04-03T09:58:25;4.85;;;2.40;;
30605;SDS011;17371;51.328;3.860;2023-04-03T10:00:55;4.53;;;2.03;;
30605;SDS011;17371;51.328;3.860;2023-04-03T10:03:23;5.33;;;2.80;;
30605;SDS011;17371;51.328;3.860;2023-04-03T10:05:50;4.40;;;2.42;;
30605;SDS011;17371;51.328;3.860;2023-04-03T10:08:23;7.53;;;2.57;;
30605;SDS011;17371;51.328;3.860;2023-04-03T10:11:05;7.60;;;2.65;;
30605;SDS011;17371;51.328;3.860;2023-04-03T10:13:33;3.17;;;1.98;;
30605;SDS011;17371;51.328;3.860;2023-04-03T10:16:00;4.82;;;2.35;;
30605;SDS011;17371;51.328;3.860;2023-04-03T10:18:29;4.63;;;2.10;;
30605;SDS011;17371;51.328;3.860;2023-04-03T10:20:59;5.03;;;2.63;;
30605;SDS011;17371;51.328;3.860;2023-04-03T10:23:30;5.25;;;2.45;;
30605;SDS011;17371;51.328;3.860;2023-04-03T10:26:01;4.70;;;2.50;;
30605;SDS011;17371;51.328;3.860;2023-04-03T10:28:31;9.70;;;2.70;;
30605;SDS011;17371;51.328;3.860;2023-04-03T10:31:03;5.65;;;2.38;;
30605;SDS011;17371;51.328;3.860;2023-04-03T10:33:36;3.50;;;2.30;;
30605;SDS011;17371;51.328;3.860;2023-04-03T10:36:07;6.47;;;2.60;;
30605;SDS011;17371;51.328;3.860;2023-04-03T10:38:40;5.90;;;2.80;;
30605;SDS011;17371;51.328;3.860;2023-04-03T10:41:12;4.80;;;2.30;;
30605;SDS011;17371;51.328;3.860;2023-04-03T10:43:43;2.65;;;1.65;;
30605;SDS011;17371;51.328;3.860;2023-04-03T10:46:13;5.50;;;2.30;;
30605;SDS011;17371;51.328;3.860;2023-04-03T10:48:45;5.85;;;2.95;;
30605;SDS011;17371;51.328;3.860;2023-04-03T10:51:16;3.33;;;1.95;;
30605;SDS011;17371;51.328;3.860;2023-04-03T10:53:50;4.72;;;1.92;;
30605;SDS011;17371;51.328;3.860;2023-04-03T10:56:19;3.60;;;2.22;;
30605;SDS011;17371;51.328;3.860;2023-04-03T10:58:51;4.70;;;1.93;;
30605;SDS011;17371;51.328;3.860;2023-04-03T11:01:19;3.97;;;2.15;;
30605;SDS011;17371;51.328;3.860;2023-04-03T11:03:48;2.70;;;1.38;;
30605;SDS011;17371;51.328;3.860;2023-04-03T11:06:15;5.30;;;2.17;;
30605;SDS011;17371;51.328;3.860;2023-04-03T11:08:42;3.47;;;1.67;;
30605;SDS011;17371;51.328;3.860;2023-04-03T11:11:11;4.83;;;2.27;;
30605;SDS011;17371;51.328;3.860;2023-04-03T11:13:40;4.05;;;1.70;;
30605;SDS011;17371;51.328;3.860;2023-04-03T11:16:08;4.88;;;1.77;;
30605;SDS011;17371;51.328;3.860;2023-04-03T11:18:35;2.85;;;1.70;;
30605;SDS011;17371;51.328;3.860;2023-04-03T11:21:03;4.15;;;2.28;;
30605;SDS011;17371;51.328;3.860;2023-04-03T11:23:32;3.03;;;1.90;;
30605;SDS011;17371;51.328;3.860;2023-04-03T11:26:01;3.47;;;1.95;;
30605;SDS011;17371;51.328;3.860;2023-04-03T11:28:33;2.50;;;1.25;;
30605;SDS011;17371;51.328;3.860;2023-04-03T11:30:59;3.73;;;1.80;;
30605;SDS011;17371;51.328;3.860;2023-04-03T11:33:35;4.45;;;1.77;;
30605;SDS011;17371;51.328;3.860;2023-04-03T11:36:05;6.22;;;1.80;;
30605;SDS011;17371;51.328;3.860;2023-04-03T11:38:33;3.08;;;1.50;;
30605;SDS011;17371;51.328;3.860;2023-04-03T11:41:00;2.00;;;1.00;;
30605;SDS011;17371;51.328;3.860;2023-04-03T11:43:27;1.83;;;1.10;;
30605;SDS011;17371;51.328;3.860;2023-04-03T11:45:54;7.50;;;1.83;;
30605;SDS011;17371;51.328;3.860;2023-04-03T11:57:13;1.98;;;1.48;;
30605;SDS011;17371;51.328;3.860;2023-04-03T12:03:01;2.10;;;1.27;;
30605;SDS011;17371;51.328;3.860;2023-04-03T12:05:29;3.63;;;1.70;;
30605;SDS011;17371;51.328;3.860;2023-04-03T12:08:15;2.50;;;1.52;;
30605;SDS011;17371;51.328;3.860;2023-04-03T12:10:41;3.35;;;1.58;;
30605;SDS011;17371;51.328;3.860;2023-04-03T12:13:12;1.57;;;1.20;;
30605;SDS011;17371;51.328;3.860;2023-04-03T12:15:44;3.38;;;1.40;;
30605;SDS011;17371;51.328;3.860;2023-04-03T12:20:58;4.38;;;1.33;;
30605;SDS011;17371;51.328;3.860;2023-04-03T12:23:28;3.40;;;1.98;;
30605;SDS011;17371;51.328;3.860;2023-04-03T12:25:59;2.85;;;1.30;;
30605;SDS011;17371;51.328;3.860;2023-04-03T12:28:27;4.65;;;2.00;;
30605;SDS011;17371;51.328;3.860;2023-04-03T12:30:53;2.07;;;1.30;;
30605;SDS011;17371;51.328;3.860;2023-04-03T12:33:20;3.05;;;1.60;;
30605;SDS011;17371;51.328;3.860;2023-04-03T12:35:56;2.37;;;1.43;;
30605;SDS011;17371;51.328;3.860;2023-04-03T12:38:33;1.98;;;1.30;;
30605;SDS011;17371;51.328;3.860;2023-04-03T12:41:18;2.70;;;1.60;;
30605;SDS011;17371;51.328;3.860;2023-04-03T12:43:50;2.55;;;1.50;;
30605;SDS011;17371;51.328;3.860;2023-04-03T12:46:24;2.08;;;1.60;;
30605;SDS011;17371;51.328;3.860;2023-04-03T12:48:54;1.87;;;1.37;;
30605;SDS011;17371;51.328;3.860;2023-04-03T12:51:22;1.38;;;1.17;;
30605;SDS011;17371;51.328;3.860;2023-04-03T12:53:55;1.98;;;1.25;;
30605;SDS011;17371;51.328;3.860;2023-04-03T12:56:26;3.08;;;1.35;;
30605;SDS011;17371;51.328;3.860;2023-04-03T12:58:53;2.65;;;1.50;;
30605;SDS011;17371;51.328;3.860;2023-04-03T13:01:20;1.77;;;1.40;;
30605;SDS011;17371;51.328;3.860;2023-04-03T13:03:47;2.13;;;1.20;;
30605;SDS011;17371;51.328;3.860;2023-04-03T13:06:14;3.25;;;1.70;;
30605;SDS011;17371;51.328;3.860;2023-04-03T13:08:49;1.88;;;1.10;;
30605;SDS011;17371;51.328;3.860;2023-04-03T13:11:15;2.13;;;1.70;;
30605;SDS011;17371;51.328;3.860;2023-04-03T13:13:44;1.60;;;1.40;;
30605;SDS011;17371;51.328;3.860;2023-04-03T13:16:19;4.28;;;1.65;;
30605;SDS011;17371;51.328;3.860;2023-04-03T13:18:44;3.27;;;1.40;;
30605;SDS011;17371;51.328;3.860;2023-04-03T13:21:17;2.75;;;1.40;;
30605;SDS011;17371;51.328;3.860;2023-04-03T13:23:45;2.03;;;1.60;;
30605;SDS011;17371;51.328;3.860;2023-04-03T13:26:13;2.30;;;1.43;;
30605;SDS011;17371;51.328;3.860;2023-04-03T13:28:40;3.67;;;1.30;;
30605;SDS011;17371;51.328;3.860;2023-04-03T13:31:08;2.65;;;1.80;;
30605;SDS011;17371;51.328;3.860;2023-04-03T13:33:41;2.40;;;1.27;;
30605;SDS011;17371;51.328;3.860;2023-04-03T13:36:10;4.15;;;1.95;;
30605;SDS011;17371;51.328;3.860;2023-04-03T13:38:41;3.88;;;1.27;;
30605;SDS011;17371;51.328;3.860;2023-04-03T13:41:23;2.43;;;1.70;;
30605;SDS011;17371;51.328;3.860;2023-04-03T13:43:49;3.35;;;1.48;;
30605;SDS011;17371;51.328;3.860;2023-04-03T13:46:23;1.97;;;1.40;;
30605;SDS011;17371;51.328;3.860;2023-04-03T13:48:50;2.65;;;1.10;;
30605;SDS011;17371;51.328;3.860;2023-04-03T13:51:18;1.70;;;1.38;;
30605;SDS011;17371;51.328;3.860;2023-04-03T13:53:46;4.53;;;2.20;;
30605;SDS011;17371;51.328;3.860;2023-04-03T13:56:16;2.80;;;1.40;;
30605;SDS011;17371;51.328;3.860;2023-04-03T13:58:53;2.33;;;1.27;;
30605;SDS011;17371;51.328;3.860;2023-04-03T14:01:24;1.88;;;1.40;;
30605;SDS011;17371;51.328;3.860;2023-04-03T14:03:52;2.03;;;1.55;;
30605;SDS011;17371;51.328;3.860;2023-04-03T14:06:19;2.80;;;1.50;;
30605;SDS011;17371;51.328;3.860;2023-04-03T14:08:44;3.50;;;1.50;;
30605;SDS011;17371;51.328;3.860;2023-04-03T14:11:13;4.07;;;1.77;;
30605;SDS011;17371;51.328;3.860;2023-04-03T14:13:40;2.03;;;1.50;;
30605;SDS011;17371;51.328;3.860;2023-04-03T14:16:07;2.20;;;1.60;;
30605;SDS011;17371;51.328;3.860;2023-04-03T14:18:32;1.70;;;1.30;;
30605;SDS011;17371;51.328;3.860;2023-04-03T14:20:57;2.37;;;1.60;;
30605;SDS011;17371;51.328;3.860;2023-04-03T14:23:23;3.15;;;1.80;;
30605;SDS011;17371;51.328;3.860;2023-04-03T14:25:48;3.23;;;1.33;;
30605;SDS011;17371;51.328;3.860;2023-04-03T14:28:15;3.80;;;1.40;;
30605;SDS011;17371;51.328;3.860;2023-04-03T14:30:42;3.47;;;1.40;;
30605;SDS011;17371;51.328;3.860;2023-04-03T14:33:10;2.30;;;1.50;;
30605;SDS011;17371;51.328;3.860;2023-04-03T14:35:39;2.75;;;1.65;;
30605;SDS011;17371;51.328;3.860;2023-04-03T14:38:05;2.90;;;1.57;;
30605;SDS011;17371;51.328;3.860;2023-04-03T14:40:37;3.15;;;1.80;;
30605;SDS011;17371;51.328;3.860;2023-04-03T14:43:02;10.30;;;1.83;;
30605;SDS011;17371;51.328;3.860;2023-04-03T14:45:28;4.60;;;1.47;;
30605;SDS011;17371;51.328;3.860;2023-04-03T14:47:54;3.07;;;1.90;;
30605;SDS011;17371;51.328;3.860;2023-04-03T14:50:22;2.45;;;1.88;;
30605;SDS011;17371;51.328;3.860;2023-04-03T14:52:48;3.05;;;1.70;;
30605;SDS011;17371;51.328;3.860;2023-04-03T14:55:15;3.10;;;1.98;;